createdAt,value
2019-05-25T00:00:34.730Z,61.45
2019-05-25T00:01:34.740Z,61.55
2019-05-25T00:02:34.719Z,61.45
2019-05-25T00:03:34.721Z,61.07
2019-05-25T00:04:34.710Z,61.65
2019-05-25T00:05:34.711Z,61.55
2019-05-25T00:06:34.716Z,61.65
2019-05-25T00:07:34.687Z,61.25
2019-05-25T00:08:34.689Z,61.35
2019-05-25T00:09:34.682Z,61.45
2019-05-25T00:10:34.678Z,61.35
2019-05-25T00:11:34.668Z,61.45
2019-05-25T00:12:34.679Z,61.25
2019-05-25T00:13:34.665Z,61.35
2019-05-25T00:14:34.670Z,61.25
2019-05-25T00:15:34.650Z,61.25
2019-05-25T00:16:34.644Z,61.25
2019-05-25T00:17:34.644Z,61.55
2019-05-25T00:18:34.632Z,61.35
2019-05-25T00:19:34.628Z,61.35
2019-05-25T00:20:34.678Z,61.74
2019-05-25T00:21:34.617Z,61.25
2019-05-25T00:22:34.611Z,61.83
2019-05-25T00:23:34.601Z,61.83
2019-05-25T00:24:34.594Z,61.55
2019-05-25T00:25:34.592Z,61.25
2019-05-25T00:26:36.285Z,61.74
2019-05-25T00:27:34.596Z,61.93
2019-05-25T00:28:34.572Z,61.83
2019-05-25T00:29:34.563Z,61.45
2019-05-25T00:30:34.566Z,61.74
2019-05-25T00:31:34.562Z,61.45
2019-05-25T00:32:34.556Z,61.65
2019-05-25T00:33:34.552Z,61.74
2019-05-25T00:34:34.558Z,61.83
2019-05-25T00:35:34.544Z,61.93
2019-05-25T00:36:36.279Z,62.03
2019-05-25T00:37:36.278Z,61.65
2019-05-25T00:38:34.516Z,61.74
2019-05-25T00:39:34.515Z,61.45
2019-05-25T00:40:34.514Z,61.45
2019-05-25T00:41:34.508Z,61.93
2019-05-25T00:42:34.498Z,62.03
2019-05-25T00:43:34.494Z,61.74
2019-05-25T00:44:36.285Z,61.93
2019-05-25T00:45:34.485Z,61.74
2019-05-25T00:46:34.487Z,61.93
2019-05-25T00:47:34.471Z,61.74
2019-05-25T00:48:34.465Z,61.93
2019-05-25T00:49:34.468Z,61.83
2019-05-25T00:50:34.449Z,61.83
2019-05-25T00:51:34.459Z,61.74
2019-05-25T00:52:34.448Z,61.93
2019-05-25T00:53:36.290Z,61.93
2019-05-25T00:54:35.426Z,61.74
2019-05-25T00:55:34.422Z,61.74
2019-05-25T00:56:34.415Z,61.83
2019-05-25T00:57:34.424Z,61.65
2019-05-25T00:58:34.411Z,61.83
2019-05-25T00:59:36.285Z,61.45
2019-05-25T01:00:36.285Z,61.93
2019-05-25T01:01:34.396Z,61.83
2019-05-25T01:02:36.289Z,61.83
2019-05-25T01:03:34.382Z,62.22
2019-05-25T01:04:34.376Z,62.03
2019-05-25T01:05:34.376Z,62.70
2019-05-25T01:06:34.364Z,62.41
2019-05-25T01:07:34.351Z,62.70
2019-05-25T01:08:34.346Z,62.51
2019-05-25T01:09:34.354Z,62.41
2019-05-25T01:10:34.337Z,62.51
2019-05-25T01:11:34.335Z,62.41
2019-05-25T01:12:34.330Z,62.51
2019-05-25T01:13:34.323Z,62.32
2019-05-25T01:14:34.316Z,62.41
2019-05-25T01:15:34.313Z,62.51
2019-05-25T01:16:34.308Z,62.51
2019-05-25T01:17:34.304Z,62.41
2019-05-25T01:18:34.297Z,62.41
2019-05-25T01:19:34.283Z,62.51
2019-05-25T01:20:34.279Z,62.41
2019-05-25T01:21:34.276Z,62.32
2019-05-25T01:22:35.791Z,62.41
2019-05-25T01:23:34.266Z,62.90
2019-05-25T01:24:43.784Z,62.70
2019-05-25T01:25:34.256Z,62.90
2019-05-25T01:26:34.252Z,62.99
2019-05-25T01:27:34.243Z,62.51
2019-05-25T01:28:37.603Z,62.99
2019-05-25T01:29:34.232Z,62.99
2019-05-25T01:30:34.227Z,62.70
2019-05-25T01:31:34.221Z,62.60
2019-05-25T01:32:34.211Z,62.90
2019-05-25T01:33:34.204Z,62.60
2019-05-25T01:34:34.206Z,62.80
2019-05-25T01:35:34.198Z,62.51
2019-05-25T01:36:34.194Z,62.70
2019-05-25T01:37:34.188Z,63.09
2019-05-25T01:38:34.181Z,62.90
2019-05-25T01:39:35.796Z,62.51
2019-05-25T01:40:34.162Z,62.51
2019-05-25T01:41:34.162Z,62.99
2019-05-25T01:42:34.154Z,62.70
2019-05-25T01:43:34.158Z,63.18
2019-05-25T01:44:34.149Z,63.18
2019-05-25T01:45:34.141Z,62.99
2019-05-25T01:46:34.141Z,63.09
2019-05-25T01:47:34.131Z,63.09
2019-05-25T01:48:34.125Z,63.18
2019-05-25T01:49:34.117Z,62.99
2019-05-25T01:50:34.119Z,63.18
2019-05-25T01:51:34.102Z,62.99
2019-05-25T01:52:34.099Z,62.99
2019-05-25T01:53:34.091Z,62.99
2019-05-25T01:54:34.081Z,62.99
2019-05-25T01:55:34.083Z,63.09
2019-05-25T01:56:34.086Z,63.09
2019-05-25T01:57:34.074Z,63.09
2019-05-25T01:58:34.068Z,62.99
2019-05-25T01:59:34.053Z,62.99
2019-05-25T02:00:34.051Z,63.09
2019-05-25T02:01:34.049Z,63.09
2019-05-25T02:02:34.042Z,62.99
2019-05-25T02:03:34.044Z,62.99
2019-05-25T02:04:34.059Z,62.99
2019-05-25T02:05:34.023Z,63.09
2019-05-25T02:06:34.017Z,62.70
2019-05-25T02:07:34.015Z,62.90
2019-05-25T02:08:34.014Z,62.57
2019-05-25T02:09:34.006Z,62.70
2019-05-25T02:10:35.808Z,62.77
2019-05-25T02:11:33.996Z,63.09
2019-05-25T02:12:33.976Z,62.70
2019-05-25T02:13:33.975Z,62.70
2019-05-25T02:14:33.965Z,62.80
2019-05-25T02:15:33.965Z,62.70
2019-05-25T02:16:35.810Z,63.47
2019-05-25T02:17:33.950Z,62.80
2019-05-25T02:18:33.942Z,62.99
2019-05-25T02:19:33.942Z,62.67
2019-05-25T02:20:33.940Z,63.15
2019-05-25T02:21:34.092Z,63.64
2019-05-25T02:22:33.926Z,63.25
2019-05-25T02:23:33.913Z,63.34
2019-05-25T02:24:33.909Z,63.54
2019-05-25T02:25:33.902Z,63.54
2019-05-25T02:26:33.896Z,63.34
2019-05-25T02:27:33.894Z,63.15
2019-05-25T02:28:33.888Z,63.25
2019-05-25T02:29:33.923Z,63.34
2019-05-25T02:30:33.888Z,63.25
2019-05-25T02:31:33.868Z,63.25
2019-05-25T02:32:33.867Z,63.34
2019-05-25T02:33:33.859Z,63.44
2019-05-25T02:34:33.857Z,63.34
2019-05-25T02:35:33.843Z,63.34
2019-05-25T02:36:33.842Z,63.44
2019-05-25T02:37:33.834Z,63.38
2019-05-25T02:38:33.831Z,63.25
2019-05-25T02:39:33.829Z,63.34
2019-05-25T02:40:33.843Z,63.44
2019-05-25T02:41:33.817Z,63.34
2019-05-25T02:42:33.809Z,63.25
2019-05-25T02:43:33.796Z,63.15
2019-05-25T02:44:33.790Z,63.15
2019-05-25T02:45:33.784Z,63.15
2019-05-25T02:46:33.798Z,63.15
2019-05-25T02:47:33.777Z,63.25
2019-05-25T02:48:33.778Z,63.15
2019-05-25T02:49:33.765Z,63.25
2019-05-25T02:50:33.755Z,63.25
2019-05-25T02:51:33.752Z,63.54
2019-05-25T02:52:33.752Z,63.25
2019-05-25T02:53:33.742Z,63.34
2019-05-25T02:54:33.742Z,63.25
2019-05-25T02:55:35.103Z,63.15
2019-05-25T02:56:33.718Z,63.25
2019-05-25T02:57:33.711Z,63.25
2019-05-25T02:58:33.707Z,63.25
2019-05-25T02:59:33.705Z,63.73
2019-05-25T03:00:33.705Z,63.44
2019-05-25T03:01:33.694Z,63.25
2019-05-25T03:02:33.686Z,63.25
2019-05-25T03:03:33.677Z,63.15
2019-05-25T03:04:33.671Z,63.44
2019-05-25T03:05:33.669Z,63.44
2019-05-25T03:06:33.664Z,63.44
2019-05-25T03:07:33.659Z,63.34
2019-05-25T03:08:33.652Z,63.54
2019-05-25T03:09:33.660Z,63.54
2019-05-25T03:10:33.634Z,63.64
2019-05-25T03:11:33.640Z,63.25
2019-05-25T03:12:33.633Z,63.44
2019-05-25T03:13:33.625Z,63.28
2019-05-25T03:14:33.615Z,63.15
2019-05-25T03:15:33.602Z,63.44
2019-05-25T03:16:33.602Z,63.38
2019-05-25T03:17:33.602Z,63.54
2019-05-25T03:18:33.587Z,63.54
2019-05-25T03:19:33.595Z,63.34
2019-05-25T03:20:33.589Z,63.54
2019-05-25T03:21:33.565Z,63.34
2019-05-25T03:22:33.562Z,63.34
2019-05-25T03:23:33.572Z,63.64
2019-05-25T03:24:33.555Z,63.64
2019-05-25T03:25:46.774Z,63.64
2019-05-25T03:26:33.546Z,63.64
2019-05-25T03:27:33.533Z,63.64
2019-05-25T03:28:33.527Z,63.64
2019-05-25T03:29:33.520Z,63.64
2019-05-25T03:30:33.518Z,63.64
2019-05-25T03:31:33.516Z,63.82
2019-05-25T03:32:33.529Z,63.64
2019-05-25T03:33:33.510Z,63.64
2019-05-25T03:34:33.495Z,63.34
2019-05-25T03:35:33.493Z,63.44
2019-05-25T03:36:33.496Z,63.54
2019-05-25T03:37:33.479Z,63.73
2019-05-25T03:38:33.470Z,63.64
2019-05-25T03:39:33.463Z,63.64
2019-05-25T03:40:33.453Z,63.73
2019-05-25T03:41:33.445Z,63.73
2019-05-25T03:42:33.445Z,63.64
2019-05-25T03:43:33.443Z,63.54
2019-05-25T03:44:33.438Z,63.54
2019-05-25T03:45:33.435Z,63.64
2019-05-25T03:46:33.421Z,63.25
2019-05-25T03:47:33.414Z,63.54
2019-05-25T03:48:33.406Z,63.73
2019-05-25T03:49:33.401Z,63.64
2019-05-25T03:50:33.390Z,63.54
2019-05-25T03:51:33.392Z,63.54
2019-05-25T03:52:33.389Z,63.54
2019-05-25T03:53:33.376Z,63.25
2019-05-25T03:54:33.369Z,63.92
2019-05-25T03:55:33.368Z,63.64
2019-05-25T03:56:33.367Z,63.44
2019-05-25T03:57:33.373Z,63.54
2019-05-25T03:58:33.354Z,63.44
2019-05-25T03:59:33.337Z,63.54
2019-05-25T04:00:33.337Z,63.82
2019-05-25T04:01:33.328Z,63.64
2019-05-25T04:02:33.322Z,63.64
2019-05-25T04:03:33.321Z,63.73
2019-05-25T04:04:33.323Z,63.54
2019-05-25T04:05:33.310Z,63.44
2019-05-25T04:06:33.308Z,63.82
2019-05-25T04:07:33.287Z,63.64
2019-05-25T04:08:33.285Z,63.44
2019-05-25T04:09:33.282Z,63.54
2019-05-25T04:10:33.276Z,63.54
2019-05-25T04:11:33.267Z,64.02
2019-05-25T04:12:33.263Z,64.12
2019-05-25T04:13:33.277Z,63.54
2019-05-25T04:14:33.248Z,63.82
2019-05-25T04:15:33.242Z,63.82
2019-05-25T04:16:33.239Z,64.02
2019-05-25T04:17:33.240Z,63.82
2019-05-25T04:18:33.230Z,63.82
2019-05-25T04:19:33.214Z,63.73
2019-05-25T04:20:33.217Z,63.82
2019-05-25T04:21:33.204Z,64.12
2019-05-25T04:22:33.197Z,63.92
2019-05-25T04:23:33.199Z,64.02
2019-05-25T04:24:33.201Z,63.82
2019-05-25T04:25:33.186Z,63.64
2019-05-25T04:26:33.173Z,63.92
2019-05-25T04:27:33.223Z,64.12
2019-05-25T04:28:33.168Z,63.92
2019-05-25T04:29:33.160Z,63.92
2019-05-25T04:30:33.152Z,64.02
2019-05-25T04:31:33.153Z,63.64
2019-05-25T04:32:33.139Z,63.92
2019-05-25T04:33:33.133Z,63.82
2019-05-25T04:34:34.849Z,64.12
2019-05-25T04:35:34.856Z,63.82
2019-05-25T04:36:33.118Z,63.92
2019-05-25T04:37:33.119Z,63.82
2019-05-25T04:38:33.106Z,63.92
2019-05-25T04:39:33.094Z,63.92
2019-05-25T04:40:33.092Z,63.82
2019-05-25T04:41:33.093Z,63.82
2019-05-25T04:42:33.087Z,63.73
2019-05-25T04:43:33.070Z,63.82
2019-05-25T04:44:33.066Z,63.54
2019-05-25T04:45:33.071Z,63.82
2019-05-25T04:46:33.051Z,63.54
2019-05-25T04:47:33.054Z,63.44
2019-05-25T04:48:33.043Z,63.25
2019-05-25T04:49:33.039Z,63.64
2019-05-25T04:50:33.035Z,63.73
2019-05-25T04:51:33.027Z,63.34
2019-05-25T04:52:33.014Z,63.64
2019-05-25T04:53:33.017Z,63.25
2019-05-25T04:54:33.007Z,63.54
2019-05-25T04:55:33.002Z,63.73
2019-05-25T04:56:39.587Z,63.25
2019-05-25T04:57:32.985Z,63.44
2019-05-25T04:58:32.989Z,63.54
2019-05-25T04:59:32.981Z,63.64
2019-05-25T05:00:34.869Z,63.73
2019-05-25T05:01:33.030Z,63.73
2019-05-25T05:02:32.958Z,63.82
2019-05-25T05:03:32.948Z,63.64
2019-05-25T05:04:32.993Z,63.54
2019-05-25T05:05:32.942Z,63.54
2019-05-25T05:06:32.935Z,63.25
2019-05-25T05:07:32.931Z,63.25
2019-05-25T05:08:35.635Z,63.44
2019-05-25T05:09:32.917Z,63.15
2019-05-25T05:10:32.911Z,63.54
2019-05-25T05:11:32.900Z,63.44
2019-05-25T05:12:32.897Z,63.34
2019-05-25T05:13:32.890Z,63.54
2019-05-25T05:14:32.890Z,63.15
2019-05-25T05:15:32.876Z,63.64
2019-05-25T05:16:32.873Z,63.54
2019-05-25T05:17:32.865Z,63.54
2019-05-25T05:18:32.874Z,63.54
2019-05-25T05:19:32.855Z,63.25
2019-05-25T05:20:32.862Z,63.25
2019-05-25T05:21:32.845Z,63.15
2019-05-25T05:22:32.840Z,63.34
2019-05-25T05:23:32.831Z,63.44
2019-05-25T05:24:32.832Z,63.64
2019-05-25T05:25:32.815Z,63.73
2019-05-25T05:26:32.809Z,63.82
2019-05-25T05:27:32.811Z,63.64
2019-05-25T05:28:32.802Z,63.64
2019-05-25T05:29:32.793Z,63.64
2019-05-25T05:30:32.789Z,63.82
2019-05-25T05:31:32.786Z,63.54
2019-05-25T05:32:32.782Z,63.44
2019-05-25T05:33:32.772Z,63.73
2019-05-25T05:34:32.773Z,64.12
2019-05-25T05:35:32.760Z,63.82
2019-05-25T05:36:32.749Z,63.92
2019-05-25T05:37:32.739Z,63.92
2019-05-25T05:38:32.734Z,63.73
2019-05-25T05:39:32.750Z,63.64
2019-05-25T05:40:32.730Z,63.54
2019-05-25T05:41:32.722Z,63.44
2019-05-25T05:42:32.719Z,63.34
2019-05-25T05:43:32.708Z,63.34
2019-05-25T05:44:32.708Z,63.25
2019-05-25T05:45:32.700Z,63.15
2019-05-25T05:46:32.696Z,63.34
2019-05-25T05:47:32.695Z,63.34
2019-05-25T05:48:32.681Z,62.96
2019-05-25T05:49:32.670Z,62.87
2019-05-25T05:50:32.669Z,62.48
2019-05-25T05:51:32.663Z,61.61
2019-05-25T05:52:32.660Z,61.80
2019-05-25T05:53:32.658Z,61.71
2019-05-25T05:54:32.645Z,61.52
2019-05-25T05:55:32.643Z,61.52
2019-05-25T05:56:32.629Z,60.94
2019-05-25T05:57:32.623Z,60.65
2019-05-25T05:58:32.619Z,60.94
2019-05-25T05:59:32.617Z,60.75
2019-05-25T06:00:32.610Z,60.84
2019-05-25T06:01:32.607Z,61.13
2019-05-25T06:02:32.593Z,60.65
2019-05-25T06:03:32.599Z,60.84
2019-05-25T06:04:32.605Z,60.72
2019-05-25T06:05:32.582Z,60.14
2019-05-25T06:06:32.574Z,60.17
2019-05-25T06:07:32.571Z,59.88
2019-05-25T06:08:32.566Z,59.27
2019-05-25T06:09:32.573Z,59.11
2019-05-25T06:10:32.549Z,58.82
2019-05-25T06:11:32.554Z,58.72
2019-05-25T06:12:32.542Z,58.53
2019-05-25T06:13:32.539Z,58.44
2019-05-25T06:14:32.530Z,58.05
2019-05-25T06:15:32.524Z,58.05
2019-05-25T06:16:32.522Z,58.24
2019-05-25T06:17:32.515Z,57.47
2019-05-25T06:18:32.513Z,57.67
2019-05-25T06:19:32.504Z,57.47
2019-05-25T06:20:32.491Z,57.47
2019-05-25T06:21:34.412Z,57.57
2019-05-25T06:22:32.528Z,57.09
2019-05-25T06:23:32.482Z,57.18
2019-05-25T06:24:32.474Z,56.90
2019-05-25T06:25:32.469Z,57.09
2019-05-25T06:26:32.462Z,57.18
2019-05-25T06:27:32.456Z,56.99
2019-05-25T06:28:32.445Z,57.18
2019-05-25T06:29:34.382Z,57.09
2019-05-25T06:30:32.439Z,57.09
2019-05-25T06:31:32.436Z,56.90
2019-05-25T06:32:32.445Z,56.80
2019-05-25T06:33:32.508Z,56.60
2019-05-25T06:34:32.417Z,57.09
2019-05-25T06:35:32.413Z,57.09
2019-05-25T06:36:32.412Z,56.41
2019-05-25T06:37:32.403Z,56.41
2019-05-25T06:38:32.399Z,56.41
2019-05-25T06:39:32.383Z,56.60
2019-05-25T06:40:32.377Z,56.41
2019-05-25T06:41:32.379Z,56.41
2019-05-25T06:42:32.368Z,56.60
2019-05-25T06:43:32.898Z,56.41
2019-05-25T06:44:32.361Z,56.51
2019-05-25T06:45:32.425Z,56.41
2019-05-25T06:46:32.347Z,56.70
2019-05-25T06:47:32.346Z,56.32
2019-05-25T06:48:32.334Z,56.80
2019-05-25T06:49:32.338Z,56.80
2019-05-25T06:50:32.333Z,56.41
2019-05-25T06:51:32.319Z,56.51
2019-05-25T06:52:32.311Z,56.90
2019-05-25T06:53:32.303Z,56.41
2019-05-25T06:54:32.303Z,56.80
2019-05-25T06:55:32.304Z,56.80
2019-05-25T06:56:32.291Z,57.09
2019-05-25T06:57:42.513Z,57.09
2019-05-25T06:58:32.282Z,57.09
2019-05-25T06:59:32.268Z,57.02
2019-05-25T07:00:32.266Z,56.90
2019-05-25T07:01:32.260Z,57.28
2019-05-25T07:02:32.255Z,57.09
2019-05-25T07:03:32.260Z,57.47
2019-05-25T07:04:32.248Z,57.57
2019-05-25T07:05:32.235Z,57.57
2019-05-25T07:06:32.229Z,57.69
2019-05-25T07:07:32.252Z,57.40
2019-05-25T07:08:32.257Z,57.37
2019-05-25T07:09:32.219Z,58.37
2019-05-25T07:10:32.218Z,58.47
2019-05-25T07:11:32.206Z,58.08
2019-05-25T07:12:32.200Z,57.98
2019-05-25T07:13:32.194Z,58.08
2019-05-25T07:14:32.189Z,57.98
2019-05-25T07:15:32.187Z,58.08
2019-05-25T07:16:32.182Z,58.27
2019-05-25T07:17:32.176Z,58.47
2019-05-25T07:18:35.259Z,58.37
2019-05-25T07:19:32.163Z,58.37
2019-05-25T07:20:32.159Z,58.37
2019-05-25T07:21:32.160Z,58.47
2019-05-25T07:22:32.156Z,58.85
2019-05-25T07:23:32.148Z,58.75
2019-05-25T07:24:32.139Z,58.85
2019-05-25T07:25:32.131Z,59.04
2019-05-25T07:26:32.129Z,58.56
2019-05-25T07:27:32.126Z,58.75
2019-05-25T07:28:32.123Z,58.75
2019-05-25T07:29:32.118Z,58.65
2019-05-25T07:30:32.111Z,59.04
2019-05-25T07:31:32.102Z,59.23
2019-05-25T07:32:32.101Z,59.33
2019-05-25T07:33:32.093Z,59.04
2019-05-25T07:34:32.086Z,59.33
2019-05-25T07:35:32.090Z,58.88
2019-05-25T07:36:32.083Z,59.14
2019-05-25T07:37:32.072Z,59.14
2019-05-25T07:38:32.066Z,59.23
2019-05-25T07:39:32.073Z,59.33
2019-05-25T07:40:32.060Z,59.33
2019-05-25T07:41:32.066Z,59.14
2019-05-25T07:42:32.058Z,59.43
2019-05-25T07:43:32.044Z,58.95
2019-05-25T07:44:32.036Z,59.23
2019-05-25T07:45:32.029Z,58.95
2019-05-25T07:46:32.022Z,58.85
2019-05-25T07:47:32.028Z,58.56
2019-05-25T07:48:32.027Z,58.85
2019-05-25T07:49:32.012Z,58.75
2019-05-25T07:50:32.135Z,59.04
2019-05-25T07:51:32.020Z,59.23
2019-05-25T07:52:31.996Z,59.33
2019-05-25T07:53:32.001Z,59.04
2019-05-25T07:54:31.987Z,59.33
2019-05-25T07:55:31.977Z,59.33
2019-05-25T07:56:31.973Z,59.14
2019-05-25T07:57:31.977Z,59.52
2019-05-25T07:58:31.963Z,59.23
2019-05-25T07:59:31.985Z,59.04
2019-05-25T08:00:31.959Z,59.04
2019-05-25T08:01:31.962Z,59.23
2019-05-25T08:02:31.962Z,59.14
2019-05-25T08:03:31.935Z,59.14
2019-05-25T08:04:31.938Z,59.04
2019-05-25T08:05:31.934Z,59.04
2019-05-25T08:06:31.920Z,59.23
2019-05-25T08:07:31.936Z,59.33
2019-05-25T08:08:31.914Z,59.33
2019-05-25T08:09:31.903Z,59.33
2019-05-25T08:10:31.895Z,59.33
2019-05-25T08:11:31.904Z,59.14
2019-05-25T08:12:31.900Z,59.43
2019-05-25T08:13:31.888Z,59.23
2019-05-25T08:14:31.883Z,59.52
2019-05-25T08:15:31.874Z,59.52
2019-05-25T08:16:31.868Z,59.72
2019-05-25T08:17:31.863Z,59.52
2019-05-25T08:18:31.855Z,59.62
2019-05-25T08:19:31.853Z,59.62
2019-05-25T08:20:31.848Z,59.72
2019-05-25T08:21:31.849Z,59.62
2019-05-25T08:22:31.856Z,59.62
2019-05-25T08:23:31.829Z,59.62
2019-05-25T08:24:31.823Z,59.52
2019-05-25T08:25:31.827Z,59.72
2019-05-25T08:26:31.820Z,59.43
2019-05-25T08:27:31.808Z,59.72
2019-05-25T08:28:33.220Z,59.72
2019-05-25T08:29:31.796Z,59.43
2019-05-25T08:30:31.798Z,59.62
2019-05-25T08:31:31.790Z,59.91
2019-05-25T08:32:31.785Z,59.91
2019-05-25T08:33:31.784Z,59.62
2019-05-25T08:34:31.774Z,59.43
2019-05-25T08:35:31.764Z,59.52
2019-05-25T08:36:31.758Z,59.23
2019-05-25T08:37:31.763Z,59.33
2019-05-25T08:38:31.749Z,59.33
2019-05-25T08:39:31.752Z,59.43
2019-05-25T08:40:31.748Z,59.62
2019-05-25T08:41:31.739Z,59.43
2019-05-25T08:42:31.731Z,59.72
2019-05-25T08:43:31.726Z,59.81
2019-05-25T08:44:31.722Z,59.52
2019-05-25T08:45:31.718Z,59.52
2019-05-25T08:46:31.710Z,59.72
2019-05-25T08:47:31.700Z,59.62
2019-05-25T08:48:31.697Z,59.72
2019-05-25T08:49:31.707Z,59.81
2019-05-25T08:50:38.210Z,59.91
2019-05-25T08:51:31.678Z,60.20
2019-05-25T08:52:31.673Z,60.20
2019-05-25T08:53:41.506Z,59.91
2019-05-25T08:54:31.665Z,59.72
2019-05-25T08:55:31.665Z,59.91
2019-05-25T08:56:31.657Z,60.20
2019-05-25T08:57:31.645Z,59.72
2019-05-25T08:58:47.189Z,59.81
2019-05-25T08:59:31.645Z,60.00
2019-05-25T09:00:31.642Z,60.20
2019-05-25T09:01:31.640Z,59.81
2019-05-25T09:02:31.668Z,59.62
2019-05-25T09:03:31.620Z,59.91
2019-05-25T09:04:31.612Z,59.72
2019-05-25T09:05:31.601Z,59.81
2019-05-25T09:06:31.602Z,59.72
2019-05-25T09:07:31.602Z,59.72
2019-05-25T09:08:31.595Z,59.62
2019-05-25T09:09:31.587Z,59.94
2019-05-25T09:10:31.585Z,60.13
2019-05-25T09:11:31.571Z,60.23
2019-05-25T09:12:31.591Z,59.91
2019-05-25T09:13:31.602Z,59.94
2019-05-25T09:14:31.584Z,60.23
2019-05-25T09:15:31.551Z,60.20
2019-05-25T09:16:31.555Z,60.13
2019-05-25T09:17:31.546Z,60.03
2019-05-25T09:18:31.538Z,60.20
2019-05-25T09:19:31.542Z,59.91
2019-05-25T09:20:31.532Z,60.30
2019-05-25T09:21:31.524Z,60.58
2019-05-25T09:22:31.521Z,60.10
2019-05-25T09:23:31.526Z,60.39
2019-05-25T09:24:31.506Z,60.49
2019-05-25T09:25:31.506Z,60.30
2019-05-25T09:26:31.497Z,60.00
2019-05-25T09:27:31.498Z,60.58
2019-05-25T09:28:31.494Z,60.20
2019-05-25T09:29:31.481Z,60.10
2019-05-25T09:30:31.477Z,60.52
2019-05-25T09:31:31.476Z,59.94
2019-05-25T09:32:31.562Z,60.13
2019-05-25T09:33:31.467Z,60.23
2019-05-25T09:34:31.468Z,59.84
2019-05-25T09:35:31.452Z,59.94
2019-05-25T09:36:31.450Z,60.03
2019-05-25T09:37:31.451Z,60.23
2019-05-25T09:38:31.443Z,59.75
2019-05-25T09:39:31.440Z,60.32
2019-05-25T09:40:31.443Z,60.13
2019-05-25T09:41:31.430Z,59.94
2019-05-25T09:42:31.423Z,60.32
2019-05-25T09:43:33.929Z,60.32
2019-05-25T09:44:31.411Z,60.42
2019-05-25T09:45:31.409Z,60.32
2019-05-25T09:46:31.407Z,60.23
2019-05-25T09:47:31.395Z,60.61
2019-05-25T09:48:31.391Z,60.42
2019-05-25T09:49:31.387Z,60.61
2019-05-25T09:50:31.381Z,60.23
2019-05-25T09:51:31.403Z,60.42
2019-05-25T09:52:31.378Z,60.23
2019-05-25T09:53:31.376Z,60.32
2019-05-25T09:54:31.451Z,60.42
2019-05-25T09:55:31.362Z,60.23
2019-05-25T09:56:31.365Z,60.13
2019-05-25T09:57:31.359Z,60.23
2019-05-25T09:58:31.343Z,60.13
2019-05-25T09:59:31.512Z,60.42
2019-05-25T10:00:31.342Z,60.13
2019-05-25T10:01:31.341Z,60.03
2019-05-25T10:02:31.327Z,60.13
2019-05-25T10:03:31.329Z,60.13
2019-05-25T10:04:31.323Z,60.23
2019-05-25T10:05:31.318Z,59.94
2019-05-25T10:06:31.312Z,60.52
2019-05-25T10:07:31.317Z,60.52
2019-05-25T10:08:31.302Z,60.13
2019-05-25T10:09:31.293Z,60.03
2019-05-25T10:10:31.289Z,60.23
2019-05-25T10:11:31.295Z,59.94
2019-05-25T10:12:31.297Z,60.13
2019-05-25T10:13:31.294Z,59.84
2019-05-25T10:14:31.280Z,59.65
2019-05-25T10:15:31.268Z,60.03
2019-05-25T10:16:31.268Z,59.84
2019-05-25T10:17:31.264Z,59.84
2019-05-25T10:18:31.260Z,59.84
2019-05-25T10:19:31.263Z,59.65
2019-05-25T10:20:31.275Z,59.65
2019-05-25T10:21:31.270Z,59.75
2019-05-25T10:22:31.247Z,59.94
2019-05-25T10:23:31.236Z,59.75
2019-05-25T10:24:31.234Z,59.94
2019-05-25T10:25:31.240Z,60.03
2019-05-25T10:26:31.226Z,60.13
2019-05-25T10:27:34.200Z,59.65
2019-05-25T10:28:31.215Z,59.94
2019-05-25T10:29:37.357Z,59.75
2019-05-25T10:30:31.224Z,59.75
2019-05-25T10:31:31.224Z,59.84
2019-05-25T10:32:31.198Z,59.84
2019-05-25T10:33:31.559Z,59.84
2019-05-25T10:34:31.182Z,59.75
2019-05-25T10:35:31.219Z,60.23
2019-05-25T10:36:31.180Z,59.94
2019-05-25T10:37:31.174Z,59.94
2019-05-25T10:38:31.194Z,60.42
2019-05-25T10:39:31.199Z,59.84
2019-05-25T10:40:31.153Z,60.42
2019-05-25T10:41:31.189Z,59.75
2019-05-25T10:42:31.181Z,60.03
2019-05-25T10:43:31.153Z,60.13
2019-05-25T10:44:31.151Z,60.03
2019-05-25T10:45:31.149Z,59.94
2019-05-25T10:46:31.142Z,59.84
2019-05-25T10:47:31.136Z,59.75
2019-05-25T10:48:31.117Z,59.84
2019-05-25T10:49:31.118Z,59.75
2019-05-25T10:50:31.109Z,60.03
2019-05-25T10:51:31.113Z,59.94
2019-05-25T10:52:31.096Z,59.84
2019-05-25T10:53:31.093Z,59.94
2019-05-25T10:54:31.086Z,59.94
2019-05-25T10:55:31.088Z,59.94
2019-05-25T10:56:31.086Z,60.13
2019-05-25T10:57:31.077Z,59.94
2019-05-25T10:58:31.080Z,60.03
2019-05-25T10:59:31.062Z,59.75
2019-05-25T11:00:31.057Z,59.94
2019-05-25T11:01:31.056Z,59.75
2019-05-25T11:02:31.054Z,59.84
2019-05-25T11:03:31.049Z,59.75
2019-05-25T11:04:31.050Z,59.65
2019-05-25T11:05:31.035Z,59.84
2019-05-25T11:06:34.557Z,59.65
2019-05-25T11:07:31.050Z,59.84
2019-05-25T11:08:31.026Z,59.75
2019-05-25T11:09:31.063Z,59.75
2019-05-25T11:10:31.014Z,59.94
2019-05-25T11:11:31.006Z,60.03
2019-05-25T11:12:31.002Z,59.75
2019-05-25T11:13:30.995Z,59.65
2019-05-25T11:14:30.991Z,59.75
2019-05-25T11:15:30.997Z,59.84
2019-05-25T11:16:30.992Z,59.65
2019-05-25T11:17:30.985Z,59.65
2019-05-25T11:18:30.981Z,59.84
2019-05-25T11:19:30.973Z,59.65
2019-05-25T11:20:30.964Z,59.75
2019-05-25T11:21:30.980Z,59.84
2019-05-25T11:22:30.971Z,59.84
2019-05-25T11:23:30.949Z,59.75
2019-05-25T11:24:30.948Z,59.75
2019-05-25T11:25:30.949Z,59.84
2019-05-25T11:26:30.946Z,60.03
2019-05-25T11:27:30.936Z,60.13
2019-05-25T11:28:30.936Z,59.84
2019-05-25T11:29:30.928Z,59.75
2019-05-25T11:30:30.924Z,59.55
2019-05-25T11:31:31.025Z,59.84
2019-05-25T11:32:30.917Z,59.94
2019-05-25T11:33:30.902Z,59.94
2019-05-25T11:34:30.901Z,59.84
2019-05-25T11:35:30.901Z,59.75
2019-05-25T11:36:30.901Z,59.75
2019-05-25T11:37:30.887Z,59.84
2019-05-25T11:38:30.883Z,59.75
2019-05-25T11:39:30.885Z,59.65
2019-05-25T11:40:30.887Z,59.84
2019-05-25T11:41:30.875Z,59.94
2019-05-25T11:42:30.884Z,59.75
2019-05-25T11:43:30.872Z,59.75
2019-05-25T11:44:30.853Z,59.94
2019-05-25T11:45:30.855Z,59.65
2019-05-25T11:46:30.845Z,59.65
2019-05-25T11:47:30.845Z,59.65
2019-05-25T11:48:30.846Z,59.84
2019-05-25T11:49:30.836Z,59.84
2019-05-25T11:50:30.836Z,59.65
2019-05-25T11:51:30.825Z,59.55
2019-05-25T11:52:30.821Z,59.94
2019-05-25T11:53:30.819Z,59.94
2019-05-25T11:54:30.813Z,59.94
2019-05-25T11:55:30.806Z,59.65
2019-05-25T11:56:30.803Z,59.65
2019-05-25T11:57:30.802Z,60.03
2019-05-25T11:58:30.791Z,59.94
2019-05-25T11:59:30.791Z,60.03
2019-05-25T12:00:30.787Z,59.75
2019-05-25T12:01:30.785Z,59.84
2019-05-25T12:02:30.781Z,59.84
2019-05-25T12:03:30.767Z,60.03
2019-05-25T12:04:30.778Z,59.84
2019-05-25T12:05:30.762Z,59.84
2019-05-25T12:06:30.757Z,59.94
2019-05-25T12:07:30.756Z,59.94
2019-05-25T12:08:30.753Z,59.94
2019-05-25T12:09:30.739Z,59.94
2019-05-25T12:10:30.745Z,59.84
2019-05-25T12:11:30.738Z,59.84
2019-05-25T12:12:30.740Z,59.84
2019-05-25T12:13:32.229Z,59.84
2019-05-25T12:14:30.721Z,59.75
2019-05-25T12:15:30.715Z,59.94
2019-05-25T12:16:30.721Z,59.94
2019-05-25T12:17:30.705Z,59.84
2019-05-25T12:18:30.705Z,59.94
2019-05-25T12:19:30.703Z,59.75
2019-05-25T12:20:30.711Z,59.84
2019-05-25T12:21:30.690Z,59.94
2019-05-25T12:22:30.687Z,59.75
2019-05-25T12:23:30.682Z,59.94
2019-05-25T12:24:30.719Z,59.75
2019-05-25T12:25:30.691Z,59.84
2019-05-25T12:26:30.670Z,59.75
2019-05-25T12:27:30.662Z,59.94
2019-05-25T12:28:30.655Z,60.23
2019-05-25T12:29:30.661Z,59.75
2019-05-25T12:30:40.175Z,59.75
2019-05-25T12:31:30.645Z,60.13
2019-05-25T12:32:30.646Z,59.94
2019-05-25T12:33:30.637Z,59.94
2019-05-25T12:34:30.643Z,59.84
2019-05-25T12:35:30.623Z,59.75
2019-05-25T12:36:30.621Z,59.94
2019-05-25T12:37:30.623Z,60.03
2019-05-25T12:38:30.620Z,59.94
2019-05-25T12:39:30.628Z,60.13
2019-05-25T12:40:30.611Z,59.94
2019-05-25T12:41:30.609Z,60.03
2019-05-25T12:42:30.594Z,60.13
2019-05-25T12:43:30.590Z,59.75
2019-05-25T12:44:34.136Z,59.94
2019-05-25T12:45:30.584Z,59.84
2019-05-25T12:46:30.677Z,59.87
2019-05-25T12:47:30.573Z,59.84
2019-05-25T12:48:30.567Z,60.03
2019-05-25T12:49:49.042Z,60.03
2019-05-25T12:50:30.589Z,59.87
2019-05-25T12:51:30.557Z,60.13
2019-05-25T12:52:30.554Z,59.94